Latest Weather Observations for Dennes Point

IDT60901

Issued at 10:21 am EDT Monday 20 February 2017 (issued every 10 minutes, with the page automatically refreshed every 10 minutes)

About weather observations | Map of Hobart area stations | Latest observations for Hobart area | Other Formats
Station Details ID: 094255 Name: DENNES POINT Lat: -43.06 Lon: 147.36 Height: 5.67 m
Data from the previous 72 hours. | See also: Recent months at Dennes Point
Date/Time
EDT
Temp
°C
App
Temp
°C
Dew
Point
°C
Rel
Hum
%
Delta-T
°C
Wind Press
QNH
hPa
Press
MSL
hPa
Rain since
9am
mm
Dir  Spd
km/h
Gust
km/h
Spd
kts
Gust
kts
20/10:00am 14.5 11.0 8.9 69 2.8 WSW 17 22 9 12 1008.3 1008.2 0.0
20/09:30am 13.6 10.1 8.9 73 2.4 WSW 17 22 9 12 1008.0 1007.9 0.0
20/09:00am 12.9 9.7 8.6 75 2.2 WSW 15 20 8 11 1008.3 1008.2 1.4
20/08:30am 12.8 9.8 9.1 78 1.9 WSW 15 19 8 10 1007.8 1007.7 1.4
20/08:00am 11.8 8.2 8.5 80 1.6 WSW 17 19 9 10 1007.7 1007.6 1.4
20/07:30am 11.0 8.3 8.8 86 1.1 SW 13 17 7 9 1007.7 1007.6 1.4
20/07:00am 10.9 8.1 8.7 86 1.1 SW 13 17 7 9 1007.5 1007.4 1.4
20/06:30am 11.1 8.2 8.3 83 1.4 SW 13 19 7 10 1007.4 1007.3 1.4
20/06:00am 10.3 7.3 7.9 85 1.2 SW 13 17 7 9 1007.1 1007.0 1.4
20/05:30am 9.9 6.9 7.7 86 1.1 SSW 13 15 7 8 1006.8 1006.7 1.4
20/05:00am 10.3 7.3 7.7 84 1.3 SW 13 15 7 8 1006.7 1006.6 1.4
20/04:30am 10.0 7.4 7.6 85 1.1 SSW 11 17 6 9 1006.6 1006.5 1.4
20/04:00am 9.7 7.0 7.5 86 1.1 SSW 11 15 6 8 1006.7 1006.6 1.4
20/03:30am 10.0 8.0 7.3 83 1.3 SSW 7 9 4 5 1006.9 1006.8 1.4
20/03:00am 10.0 8.1 6.7 80 1.6 SSW 6 7 3 4 1006.9 1006.8 1.4
20/02:30am 10.6 9.2 7.3 80 1.6 SSW 4 6 2 3 1006.8 1006.7 1.4
20/02:00am 10.5 7.9 7.9 84 1.3 SW 11 13 6 7 1006.4 1006.3 1.4
20/01:30am 11.7 8.0 7.8 77 1.9 WSW 17 20 9 11 1006.2 1006.1 1.4
20/01:00am 11.6 7.8 7.5 76 2.0 W 17 20 9 11 1006.5 1006.4 1.4
20/12:30am 12.2 9.2 7.9 75 2.1 WSW 13 20 7 11 1006.5 1006.4 1.4
20/12:00am 12.0 8.6 7.5 74 2.2 SW 15 19 8 10 1006.1 1006.0 1.4
 
Date/Time
EDT
Temp
°C
App
Temp
°C
Dew
Point
°C
Rel
Hum
%
Delta-T
°C
Wind Press
QNH
hPa
Press
MSL
hPa
Rain since
9am
mm
Dir  Spd
km/h
Gust
km/h
Spd
kts
Gust
kts
19/11:30pm 12.8 8.6 8.1 73 2.3 WSW 20 28 11 15 1006.5 1006.4 1.4
19/11:00pm 13.0 8.8 8.3 73 2.3 W 20 32 11 17 1006.8 1006.7 1.4
19/10:30pm 12.4 10.2 9.2 81 1.6 SW 11 15 6 8 1006.6 1006.5 1.4
19/10:00pm 12.2 10.8 9.4 83 1.4 SW 7 9 4 5 1006.5 1006.4 1.4
19/09:30pm 12.6 10.7 8.9 78 1.9 SSW 9 11 5 6 1006.2 1006.1 1.4
19/09:00pm 12.6 10.9 7.7 72 2.4 SSW 6 6 3 3 1005.9 1005.8 1.4
19/08:30pm 13.2 11.4 7.9 70 2.6 SSE 7 9 4 5 1005.5 1005.4 1.4
19/08:00pm 13.8 12.0 7.1 64 3.3 SSE 6 7 3 4 1005.0 1004.9 1.4
19/07:30pm 14.6 12.7 6.9 60 3.8 SSE 6 11 3 6 1004.6 1004.5 1.4
19/07:00pm 15.6 12.3 6.3 54 4.5 ESE 13 19 7 10 1004.4 1004.3 1.4
19/06:30pm 15.9 13.9 8.6 62 3.7 SE 9 17 5 9 1004.2 1004.1 1.4
19/06:00pm 16.4 13.6 8.4 59 4.1 ESE 13 17 7 9 1004.0 1003.9 1.4
19/05:30pm 16.2 12.4 7.7 57 4.3 ESE 17 22 9 12 1003.8 1003.7 1.4
19/05:00pm 16.4 12.4 6.5 52 4.9 ESE 17 20 9 11 1003.8 1003.7 1.4
19/04:30pm 16.6 12.9 6.4 51 5.0 ESE 15 20 8 11 1003.6 1003.5 1.4
19/04:00pm 15.5 11.4 6.0 53 4.6 ESE 17 20 9 11 1003.7 1003.6 1.4
19/03:30pm 16.6 13.4 5.3 47 5.4 ESE 11 15 6 8 1003.8 1003.7 1.4
19/03:00pm 16.4 14.5 6.5 52 4.9 E 6 9 3 5 1004.0 1003.9 1.4
19/02:30pm 15.3 13.8 6.6 56 4.2 NNW 4 6 2 3 1004.1 1004.0 1.4
19/02:00pm 14.8 13.7 8.3 65 3.3 NNE 4 6 2 3 1004.2 1004.1 1.4
19/01:30pm 13.3 11.5 9.5 78 1.9 E 9 15 5 8 1004.3 1004.2 1.4
19/01:00pm 13.1 10.7 7.1 67 2.9 NNE 9 13 5 7 1004.6 1004.5 0.0
19/12:30pm 15.0 12.7 4.7 50 4.8 ENE 6 7 3 4 1004.2 1004.1 0.0
19/12:00pm 15.2 12.6 4.3 48 5.1 ENE 7 9 4 5 1004.3 1004.2 0.0
19/11:30am 15.0 13.1 4.7 50 4.8 NE 4 7 2 4 1004.4 1004.3 0.0
19/11:00am 14.3 11.9 5.4 55 4.2 N 7 13 4 7 1004.3 1004.2 0.0
19/10:30am 14.6 12.4 5.1 53 4.5 NNE 6 9 3 5 1004.2 1004.1 0.0
19/10:00am 14.1 11.9 5.2 55 4.2 N 6 7 3 4 1003.9 1003.8 0.0
19/09:30am 13.0 10.8 5.4 60 3.5 NNE 6 9 3 5 1003.6 1003.5 0.0
19/09:00am 13.0 9.9 5.7 61 3.4 NNE 11 15 6 8 1003.4 1003.3 0.0
19/08:30am 12.9 9.5 6.0 63 3.3 NE 13 17 7 9 1003.1 1003.0 0.0
19/08:00am 12.2 8.4 5.6 64 3.1 NNE 15 19 8 10 1003.1 1003.0 0.0
19/07:30am 12.0 7.0 6.5 69 2.6 NE 22 26 12 14 1003.0 1002.9 0.0
19/07:00am 12.1 7.9 5.9 66 2.9 NE 17 20 9 11 1002.8 1002.7 0.0
19/06:30am 12.1 7.7 6.6 69 2.6 NNE 19 22 10 12 1002.5 1002.4 0.0
19/06:00am 12.4 7.5 7.1 70 2.6 NNE 22 28 12 15 1002.1 1002.0 0.0
19/05:30am 12.3 7.7 6.4 67 2.8 NE 20 24 11 13 1002.1 1002.0 0.0
19/05:00am 12.5 7.1 6.5 67 2.9 NE 24 28 13 15 1002.1 1002.0 0.0
19/04:30am 12.8 7.6 5.5 61 3.4 N 22 28 12 15 1001.9 1001.9 0.0
19/04:00am 13.1 8.7 5.0 58 3.8 N 17 22 9 12 1002.2 1002.1 0.0
19/03:30am 13.1 8.3 4.8 57 3.8 N 19 26 10 14 1002.5 1002.4 0.0
19/03:00am 13.0 8.6 4.7 57 3.8 N 17 20 9 11 1002.8 1002.7 0.0
19/02:30am 13.0 8.6 4.7 57 3.8 NNW 17 20 9 11 1003.1 1003.0 0.0
19/02:00am 12.8 9.2 5.0 59 3.6 NNW 13 17 7 9 1003.4 1003.3 0.0
19/01:30am 12.6 9.3 4.8 59 3.6 NNW 11 17 6 9 1003.6 1003.5 0.0
19/01:00am 12.8 9.6 5.0 59 3.6 NNW 11 13 6 7 1003.9 1003.8 0.0
19/12:30am 11.1 9.2 4.8 65 2.9 SW 4 6 2 3 1003.9 1003.8 0.0
19/12:00am 11.4 9.4 6.3 71 2.4 SSW 6 7 3 4 1004.1 1004.0 0.0
 
Date/Time
EDT
Temp
°C
App
Temp
°C
Dew
Point
°C
Rel
Hum
%
Delta-T
°C
Wind Press
QNH
hPa
Press
MSL
hPa
Rain since
9am
mm
Dir  Spd
km/h
Gust
km/h
Spd
kts
Gust
kts
18/11:30pm 12.7 11.2 7.0 68 2.7 SE 4 7 2 4 1004.5 1004.4 0.0
18/11:00pm 13.4 11.4 8.7 73 2.4 ENE 9 13 5 7 1004.9 1004.8 0.0
18/10:30pm 12.4 10.6 3.6 55 3.9 WSW 2 6 1 3 1005.1 1005.0 0.0
18/10:00pm 11.9 8.7 2.9 54 4.0 SW 9 11 5 6 1005.2 1005.1 0.0
18/09:30pm 12.7 9.9 2.3 49 4.5 W 6 7 3 4 1005.5 1005.4 0.0
18/09:00pm 13.9 9.2 3.1 48 4.8 W 17 19 9 10 1005.0 1004.9 0.0
18/08:30pm 14.0 8.1 3.8 50 4.6 WNW 24 28 13 15 1004.8 1004.7 0.0
18/08:00pm 14.5 8.8 2.7 45 5.3 WNW 22 30 12 16 1004.7 1004.6 0.0
18/07:30pm 15.1 9.2 3.9 47 5.1 W 24 32 13 17 1004.6 1004.5 0.0
18/07:00pm 16.3 13.4 2.7 40 6.2 W 7 15 4 8 1004.3 1004.2 0.0
18/06:30pm 17.0 13.7 2.6 38 6.5 W 9 15 5 8 1004.2 1004.1 0.0
18/06:00pm 17.4 13.0 2.6 37 6.8 W 15 22 8 12 1004.2 1004.1 0.0
18/05:30pm 16.0 9.6 3.4 43 5.8 W 26 35 14 19 1004.0 1003.9 0.0
18/05:00pm 16.0 9.0 4.1 45 5.6 W 30 41 16 22 1004.1 1004.0 0.0
18/04:30pm 17.2 10.5 3.5 40 6.3 W 28 35 15 19 1004.4 1004.3 0.0
18/04:00pm 17.4 12.9 4.0 41 6.3 W 17 26 9 14 1004.8 1004.7 0.0
18/03:30pm 15.9 12.9 6.1 52 4.7 W 11 17 6 9 1005.2 1005.1 0.0
18/03:00pm 15.8 10.7 4.2 46 5.4 WSW 20 28 11 15 1005.2 1005.1 0.0
18/02:30pm 16.4 9.2 6.0 50 5.0 SW 33 44 18 24 1005.2 1005.1 0.0
18/02:21pm 15.4 9.0 5.0 50 4.9 WSW 28 39 15 21 1005.3 1005.2 0.0
18/02:00pm 16.6 12.6 2.6 39 6.4 WSW 13 19 7 10 1005.3 1005.2 0.0
18/01:30pm 16.3 13.2 3.7 43 5.8 NW 9 26 5 14 1005.2 1005.1 0.0
18/01:00pm 17.4 12.9 2.2 36 6.9 WNW 15 28 8 15 1005.3 1005.2 0.0
18/12:30pm 16.9 12.4 2.1 37 6.6 WNW 15 26 8 14 1005.5 1005.4 0.0
18/12:00pm 17.4 13.2 4.0 41 6.3 WNW 15 24 8 13 1005.7 1005.6 0.0
18/11:30am 15.1 12.0 3.6 46 5.2 WNW 9 19 5 10 1006.0 1005.9 0.0
18/11:00am 16.0 12.3 4.7 47 5.3 N 13 19 7 10 1006.2 1006.1 0.0
18/10:30am 15.7 11.8 3.2 43 5.7 W 13 20 7 11 1006.2 1006.1 0.0
18/10:00am 13.4 10.2 3.2 50 4.6 WNW 9 15 5 8 1006.4 1006.3 0.0
18/09:30am 13.7 11.5 3.5 50 4.6 NE 4 6 2 3 1006.3 1006.2 0.0
18/09:00am 13.4 10.7 3.8 52 4.4 N 7 11 4 6 1006.4 1006.3 0.0
18/08:30am 12.9 10.3 3.3 52 4.3 NW 6 13 3 7 1006.2 1006.1 0.0
18/08:00am 12.5 9.9 4.0 56 3.8 NW 7 11 4 6 1006.0 1005.9 0.0
18/07:30am 11.6 8.9 3.9 59 3.4 NNW 7 9 4 5 1005.6 1005.5 0.0
18/07:00am 11.1 8.4 3.6 60 3.3 WNW 7 13 4 7 1005.3 1005.2 0.0
18/06:30am 10.6 8.1 3.9 63 3.0 WNW 6 9 3 5 1005.0 1004.9 0.0
18/06:00am 11.5 7.0 4.0 60 3.4 NW 17 26 9 14 1004.8 1004.7 0.0
18/05:30am 11.3 7.8 3.6 59 3.4 NW 11 19 6 10 1004.5 1004.4 0.0
18/05:00am 11.6 7.7 3.6 58 3.6 NW 13 22 7 12 1004.1 1004.0 0.0
18/04:30am 11.7 6.9 4.7 62 3.2 W 19 28 10 15 1003.9 1003.8 0.0
18/04:00am 11.9 6.9 4.6 61 3.3 WNW 20 28 11 15 1003.8 1003.7 0.0
18/03:30am 12.2 6.7 4.2 58 3.6 W 22 32 12 17 1003.8 1003.7 0.0
18/03:00am 12.3 8.1 4.0 57 3.7 W 15 22 8 12 1004.0 1003.9 0.0
18/02:30am 12.7 8.2 4.2 56 3.9 WNW 17 22 9 12 1004.1 1004.0 0.0
18/02:00am 12.8 7.8 3.5 53 4.2 WNW 19 24 10 13 1004.3 1004.2 0.0
18/01:30am 12.6 7.9 5.1 60 3.5 WNW 19 28 10 15 1004.3 1004.2 0.0
18/01:00am 12.9 8.0 5.1 59 3.6 WNW 20 28 11 15 1004.1 1004.0 0.0
18/12:30am 13.2 7.7 6.1 62 3.4 WNW 24 33 13 18 1004.2 1004.1 0.0
18/12:00am 13.5 7.2 5.7 59 3.7 W 28 35 15 19 1004.4 1004.3 0.0
 
Date/Time
EDT
Temp
°C
App
Temp
°C
Dew
Point
°C
Rel
Hum
%
Delta-T
°C
Wind Press
QNH
hPa
Press
MSL
hPa
Rain since
9am
mm
Dir  Spd
km/h
Gust
km/h
Spd
kts
Gust
kts
17/11:30pm 13.9 8.0 5.8 58 3.8 W 26 33 14 18 1004.4 1004.3 0.0
17/11:00pm 13.6 10.1 5.3 57 3.9 WNW 13 22 7 12 1004.5 1004.4 0.0
17/10:30pm 14.1 10.9 4.9 54 4.3 W 11 15 6 8 1004.3 1004.2 0.0
17/10:00pm 14.3 10.0 5.1 54 4.3 WNW 17 24 9 13 1004.1 1004.0 0.0
17/09:30pm 14.5 9.9 5.8 56 4.1 WNW 19 28 10 15 1003.6 1003.5 0.0
17/09:00pm 14.6 10.5 6.4 58 4.0 W 17 24 9 13 1003.3 1003.2 0.0
17/08:30pm 15.0 9.1 5.8 54 4.4 W 26 39 14 21 1003.1 1003.0 0.0
17/08:00pm 15.3 10.0 6.6 56 4.3 W 24 35 13 19 1002.8 1002.7 0.0
17/07:30pm 15.6 10.1 7.4 58 4.1 W 26 37 14 20 1002.1 1002.0 0.0
17/07:00pm 16.3 8.7 7.5 56 4.4 W 37 50 20 27 1001.6 1001.6 0.0
17/06:30pm 16.6 9.9 8.1 57 4.3 WSW 33 44 18 24 1001.4 1001.4 0.0
17/06:00pm 17.5 10.4 9.4 59 4.3 W 37 46 20 25 1001.0 1001.0 0.0
17/05:30pm 16.6 9.4 10.7 68 3.1 WSW 39 48 21 26 1000.8 1000.8 0.0
17/05:00pm 19.1 15.3 11.2 60 4.3 WSW 22 32 12 17 1000.1 1000.1 0.0
17/04:30pm 18.9 13.0 11.2 61 4.2 W 33 46 18 25 999.9 999.9 0.0
17/04:00pm 21.7 17.6 8.6 43 7.0 W 20 32 11 17 999.6 999.6 0.0
17/03:30pm 21.1 17.5 8.4 44 6.7 W 17 28 9 15 999.5 999.5 0.0
17/03:00pm 21.0 16.9 8.0 43 6.8 WNW 19 26 10 14 999.8 999.8 0.0
17/02:30pm 21.3 17.9 9.2 46 6.4 WNW 17 26 9 14 999.9 999.9 0.0
17/02:00pm 21.0 19.7 11.1 53 5.5 N 9 17 5 9 1000.2 1000.2 0.0
17/01:30pm 20.9 17.2 10.1 50 5.8 N 20 26 11 14 1000.6 1000.6 0.0
17/01:00pm 19.3 16.0 9.5 53 5.2 N 17 24 9 13 1001.0 1001.0 0.0
17/12:30pm 19.7 17.0 9.0 50 5.6 NW 13 24 7 13 1001.4 1001.4 0.0
17/12:00pm 18.0 14.8 10.1 60 4.2 N 17 22 9 12 1001.6 1001.6 0.0
17/11:30am 18.6 14.7 9.4 55 4.8 N 20 26 11 14 1002.1 1002.0 0.0
17/11:00am 17.1 13.4 9.3 60 4.1 NNE 19 24 10 13 1002.4 1002.3 0.0
17/10:30am 16.3 12.4 8.5 60 4.0 NNE 19 24 10 13 1002.7 1002.6 0.0

Latest Capital City Observations: Canberra | Sydney | Melbourne | Brisbane | Adelaide | Perth | Hobart | Darwin

Other Formats:

Comma delimited format used in spreadsheet applications
http://www.bom.gov.au/fwo/IDT60901/IDT60901.94988.axf

JavaScript Object Notation format (JSON) in row-major order
http://www.bom.gov.au/fwo/IDT60901/IDT60901.94988.json